Terminal Aerodrome Forecast
Issued by NWS

Home | Current Version | Previous Version | Text Only | Print | Product List | Glossary On
Versions: 1 2 3 4 5 6 7 8 9 10 11 12 13 14 15 16 17 18 19 20
000
FTAK31 PAFA 181016 AAA
TAFASC
TAF AMD
PASC 181016Z 1810/1906 21014KT 6SM -SHSN BKN035 OVC080
      TEMPO 1810/1813 2SM -SN BR BKN015
     FM181300 24015KT 1SM -SN BR BKN015 OVC020
     FM181800 21015KT 3SM -SN BR OVC015
     FM190000 25015KT 6SM -SN BR OVC020=

USA.gov is the U.S. government's official web portal to all federal, state and local government web resources and services.